Zacapa — FAE5652 — position and weather

sailwx.info

Track history (hours):
 
Tides and Currents Weather Stations Pressure Air Temp Water Temp Dewpoint Dewpoint Depression Visibility Wind Speed Wind Dir Waves Ship Positions

Zacapa

Last reported at 2018-Jul-16 12:28 UTC. Time now 2018-Jul-16 12:32 UTC.
Position N 48°14' W 004°30'.

Length 10 m.

Type: Pleasure craft. MMSI: 227489270.

Date/timePositionNaut miles runAvg speedWind from/ knotsBaromVisibWave heightAir tempDewpointWater temp
2018-Jul-16 12:28N 48°14' W 004°30'0 0.0
2018-Jul-16 11:58N 48°14' W 004°30'0 0.0
2018-Jul-15 15:35N 48°14' W 004°30'0 0.1
2018-Jul-15 15:30N 48°14' W 004°30'1 2.1
2018-Jul-15 15:00N 48°13' W 004°29'1 2.6
2018-Jul-15 14:30N 48°12' W 004°28'3 5.3
2018-Jul-15 14:00N 48°09' W 004°28'2 3.8
2018-Jul-15 13:30N 48°10' W 004°26'1 2.8
2018-Jul-15 13:00N 48°12' W 004°25'1 2.3
2018-Jul-15 12:22N 48°13' W 004°25'0 0.1
2018-Jul-15 09:41N 48°13' W 004°25'1 5.0
2018-Jul-15 09:30N 48°13' W 004°26'2 4.7
2018-Jul-15 09:01N 48°14' W 004°30'0 0.0
2018-Jul-14 13:06N 48°14' W 004°30'0 0.0
2018-Jul-14 13:00N 48°14' W 004°30'0 0.3
2018-Jul-14 12:30N 48°14' W 004°29'2 3.4
2018-Jul-14 12:00N 48°12' W 004°29'1 1.2
2018-Jul-14 10:58N 48°12' W 004°31'0 0.0
2018-Jul-14 10:10N 48°12' W 004°31'0 0.6
2018-Jul-14 09:56N 48°12' W 004°31'2 4.2
2018-Jul-14 09:30N 48°10' W 004°29'1 2.3
2018-Jul-14 09:00N 48°10' W 004°27'1 2.0
2018-Jul-14 08:30N 48°09' W 004°26'3 5.0
2018-Jul-14 08:00N 48°08' W 004°23'1 2.8
2018-Jul-14 07:30N 48°07' W 004°21'1 2.2
2018-Jul-14 06:58N 48°06' W 004°20'0 0.0
2018-Jul-14 06:10N 48°06' W 004°20'0 0.0
2018-Jul-14 05:58N 48°06' W 004°20'1 0.0
2018-Jul-13 14:00N 48°06' W 004°21'2 3.6
2018-Jul-13 13:30N 48°07' W 004°23'2 4.1
2018-Jul-13 13:00N 48°07' W 004°27'2 3.9
2018-Jul-13 12:30N 48°07' W 004°29'2 3.4
2018-Jul-13 12:00N 48°06' W 004°32'2 3.0
2018-Jul-13 11:22N 48°06' W 004°35'2 4.1
2018-Jul-13 10:57N 48°06' W 004°37'2 4.1
2018-Jul-13 10:30N 48°05' W 004°40'2 4.2
2018-Jul-13 10:00N 48°04' W 004°43'2 4.3
2018-Jul-13 09:30N 48°03' W 004°45'2 3.2
2018-Jul-13 08:53N 48°01' W 004°44'4 4.7
2018-Jul-13 07:58N 48°00' W 004°38'3 2.8
2018-Jul-13 06:58N 47°60' W 004°34'1 0.7
2018-Jul-13 05:48N 48°00' W 004°33'1 0.0
2018-Jul-12 13:58N 47°60' W 004°33'4 2.9
2018-Jul-12 12:43N 48°01' W 004°38'3 1.6
2018-Jul-12 10:38N 48°02' W 004°43'1 2.1
2018-Jul-12 10:13N 48°02' W 004°44'0 2.0
2018-Jul-12 10:00N 48°02' W 004°45'1 1.0
2018-Jul-12 09:30N 48°02' W 004°46'1 1.8
2018-Jul-12 09:00N 48°03' W 004°45'2 4.4
2018-Jul-12 08:30N 48°05' W 004°43'3 5.0
2018-Jul-12 08:00N 48°06' W 004°40'2 4.8
2018-Jul-12 07:30N 48°08' W 004°37'2 4.7
2018-Jul-12 07:00N 48°09' W 004°34'2 1.7
2018-Jul-12 05:44N 48°11' W 004°32'0 0.0
2018-Jul-11 16:38N 48°11' W 004°32'1 3.4
2018-Jul-11 16:28N 48°11' W 004°31'2 4.4
2018-Jul-11 16:00N 48°13' W 004°30'1 1.7
2018-Jul-11 15:28N 48°14' W 004°30'0 0.0
2018-Jul-11 15:00N 48°14' W 004°30'0 0.0
2018-Jul-11 14:30N 48°14' W 004°30'0 0.0
2018-Jul-11 14:00N 48°14' W 004°30'0 0.0
2018-Jul-11 13:30N 48°14' W 004°30'0 0.0
2018-Jul-11 13:00N 48°14' W 004°30'0 0.0
2018-Jul-11 12:30N 48°14' W 004°30'0 0.0
2018-Jul-11 12:00N 48°14' W 004°30'0 0.0
2018-Jul-11 11:30N 48°14' W 004°30'0 0.0
2018-Jul-11 11:00N 48°14' W 004°30'0 0.0
2018-Jul-11 10:30N 48°14' W 004°30'0 0.0
2018-Jul-11 10:00N 48°14' W 004°30'0 0.0
2018-Jul-11 09:30N 48°14' W 004°30'0 0.0
2018-Jul-11 09:00N 48°14' W 004°30'0 0.0
2018-Jul-11 08:30N 48°14' W 004°30'0 0.0
2018-Jul-11 08:00N 48°14' W 004°30'0 0.0
2018-Jul-11 07:30N 48°14' W 004°30'0 0.0
2018-Jul-11 07:00N 48°14' W 004°30'0 0.0
2018-Jul-11 06:30N 48°14' W 004°30'0 0.0
2018-Jul-11 06:00N 48°14' W 004°30'0 0.0
2018-Jul-11 05:30N 48°14' W 004°30'0 0.0
2018-Jul-11 05:00N 48°14' W 004°30'0 0.0
2018-Jul-11 04:30N 48°14' W 004°30'0 0.0
2018-Jul-11 04:00N 48°14' W 004°30'0 0.0
2018-Jul-11 03:30N 48°14' W 004°30'0 0.0
2018-Jul-11 03:00N 48°14' W 004°30'0 0.0
2018-Jul-11 02:30N 48°14' W 004°30'0 0.0
2018-Jul-11 02:00N 48°14' W 004°30'0 0.0
2018-Jul-11 01:30N 48°14' W 004°30'0 0.0
2018-Jul-11 01:00N 48°14' W 004°30'0 0.0
2018-Jul-11 00:30N 48°14' W 004°30'0 0.0
2018-Jul-11 00:00N 48°14' W 004°30'0 0.0
2018-Jul-10 23:30N 48°14' W 004°30'0 0.0
2018-Jul-10 23:00N 48°14' W 004°30'0 0.0
2018-Jul-10 22:30N 48°14' W 004°30'0 0.0
2018-Jul-10 22:00N 48°14' W 004°30'0 0.0
2018-Jul-10 21:30N 48°14' W 004°30'0 0.0
2018-Jul-10 21:00N 48°14' W 004°30'0 0.0
2018-Jul-10 20:29N 48°14' W 004°30'0 0.0
2018-Jul-10 20:00N 48°14' W 004°30'0 0.0
2018-Jul-10 19:29N 48°14' W 004°30'0 0.0
2018-Jul-10 18:59N 48°14' W 004°30'0 0.0
2018-Jul-10 18:30N 48°14' W 004°30'0 0.0
2018-Jul-10 17:59N 48°14' W 004°30'0 0.0
2018-Jul-10 17:29N 48°14' W 004°30'0 0.0
2018-Jul-10 17:00N 48°14' W 004°30'0 0.0
2018-Jul-10 16:30N 48°14' W 004°30'0 0.9
2018-Jul-10 15:59N 48°13' W 004°29'1 2.1
2018-Jul-10 15:24N 48°12' W 004°30'1 3.0
2018-Jul-10 14:58N 48°11' W 004°32'1 1.1
2018-Jul-10 14:25N 48°10' W 004°31'2 5.4
2018-Jul-10 14:00N 48°12' W 004°30'1 2.7
2018-Jul-10 13:30N 48°14' W 004°30'0 0.0
2018-Jul-08 10:21N 48°14' W 004°30'0 0.0
2018-Jul-08 10:00N 48°14' W 004°30'0 0.0
2018-Jul-08 09:30N 48°14' W 004°30'0 0.0
2018-Jul-07 15:46N 48°14' W 004°30'0 0.5
2018-Jul-07 15:30N 48°14' W 004°30'2 3.2
2018-Jul-07 15:00N 48°12' W 004°30'2 3.4
2018-Jul-07 14:18N 48°10' W 004°32'1 4.0
2018-Jul-07 14:01N 48°09' W 004°33'3 2.2
2018-Jul-07 12:38N 48°12' W 004°31'0 0.0
2018-Jul-07 10:38N 48°12' W 004°31'0 0.0
2018-Jul-07 09:53N 48°12' W 004°31'1 3.0
2018-Jul-07 09:28N 48°13' W 004°30'1 2.0
2018-Jul-07 08:58N 48°14' W 004°30'0 0.0
2018-Jul-06 15:57N 48°14' W 004°30'0 0.8
2018-Jul-06 15:30N 48°13' W 004°29'1 2.0
2018-Jul-06 15:00N 48°12' W 004°30'1 1.3
2018-Jul-06 14:07N 48°12' W 004°31'0 0.0
2018-Jul-06 13:58N 48°12' W 004°31'1 1.5
2018-Jul-06 13:30N 48°12' W 004°30'2 3.2
2018-Jul-06 13:00N 48°12' W 004°28'1 2.6
2018-Jul-06 12:30N 48°13' W 004°29'  
Track history (hours):
 
Tides and Currents Weather Stations Pressure Air Temp Water Temp Dewpoint Dewpoint Depression Visibility Wind Speed Wind Dir Waves Ship Positions

Zacapa

Last reported at 2018-Jul-16 12:28 UTC. Time now 2018-Jul-16 12:32 UTC.
Position N 48°14' W 004°30'.

Length 10 m.

Type: Pleasure craft. MMSI: 227489270.

Date/timePositionNaut miles runAvg speedWind from/ knotsBaromVisibWave heightAir tempDewpointWater temp
2018-Jul-16 12:28N 48°14' W 004°30'0 0.0
2018-Jul-16 11:58N 48°14' W 004°30'0 0.0
2018-Jul-15 15:35N 48°14' W 004°30'0 0.1
2018-Jul-15 15:30N 48°14' W 004°30'1 2.1
2018-Jul-15 15:00N 48°13' W 004°29'1 2.6
2018-Jul-15 14:30N 48°12' W 004°28'3 5.3
2018-Jul-15 14:00N 48°09' W 004°28'2 3.8
2018-Jul-15 13:30N 48°10' W 004°26'1 2.8
2018-Jul-15 13:00N 48°12' W 004°25'1 2.3
2018-Jul-15 12:22N 48°13' W 004°25'0 0.1
2018-Jul-15 09:41N 48°13' W 004°25'1 5.0
2018-Jul-15 09:30N 48°13' W 004°26'2 4.7
2018-Jul-15 09:01N 48°14' W 004°30'0 0.0
2018-Jul-14 13:06N 48°14' W 004°30'0 0.0
2018-Jul-14 13:00N 48°14' W 004°30'0 0.3
2018-Jul-14 12:30N 48°14' W 004°29'2 3.4
2018-Jul-14 12:00N 48°12' W 004°29'1 1.2
2018-Jul-14 10:58N 48°12' W 004°31'0 0.0
2018-Jul-14 10:10N 48°12' W 004°31'0 0.6
2018-Jul-14 09:56N 48°12' W 004°31'2 4.2
2018-Jul-14 09:30N 48°10' W 004°29'1 2.3
2018-Jul-14 09:00N 48°10' W 004°27'1 2.0
2018-Jul-14 08:30N 48°09' W 004°26'3 5.0
2018-Jul-14 08:00N 48°08' W 004°23'1 2.8
2018-Jul-14 07:30N 48°07' W 004°21'1 2.2
2018-Jul-14 06:58N 48°06' W 004°20'0 0.0
2018-Jul-14 06:10N 48°06' W 004°20'0 0.0
2018-Jul-14 05:58N 48°06' W 004°20'1 0.0
2018-Jul-13 14:00N 48°06' W 004°21'2 3.6
2018-Jul-13 13:30N 48°07' W 004°23'2 4.1
2018-Jul-13 13:00N 48°07' W 004°27'2 3.9
2018-Jul-13 12:30N 48°07' W 004°29'2 3.4
2018-Jul-13 12:00N 48°06' W 004°32'2 3.0
2018-Jul-13 11:22N 48°06' W 004°35'2 4.1
2018-Jul-13 10:57N 48°06' W 004°37'2 4.1
2018-Jul-13 10:30N 48°05' W 004°40'2 4.2
2018-Jul-13 10:00N 48°04' W 004°43'2 4.3
2018-Jul-13 09:30N 48°03' W 004°45'2 3.2
2018-Jul-13 08:53N 48°01' W 004°44'4 4.7
2018-Jul-13 07:58N 48°00' W 004°38'3 2.8
2018-Jul-13 06:58N 47°60' W 004°34'1 0.7
2018-Jul-13 05:48N 48°00' W 004°33'1 0.0
2018-Jul-12 13:58N 47°60' W 004°33'4 2.9
2018-Jul-12 12:43N 48°01' W 004°38'3 1.6
2018-Jul-12 10:38N 48°02' W 004°43'1 2.1
2018-Jul-12 10:13N 48°02' W 004°44'0 2.0
2018-Jul-12 10:00N 48°02' W 004°45'1 1.0
2018-Jul-12 09:30N 48°02' W 004°46'1 1.8
2018-Jul-12 09:00N 48°03' W 004°45'2 4.4
2018-Jul-12 08:30N 48°05' W 004°43'3 5.0
2018-Jul-12 08:00N 48°06' W 004°40'2 4.8
2018-Jul-12 07:30N 48°08' W 004°37'2 4.7
2018-Jul-12 07:00N 48°09' W 004°34'2 1.7
2018-Jul-12 05:44N 48°11' W 004°32'0 0.0
2018-Jul-11 16:38N 48°11' W 004°32'1 3.4
2018-Jul-11 16:28N 48°11' W 004°31'2 4.4
2018-Jul-11 16:00N 48°13' W 004°30'1 1.7
2018-Jul-11 15:28N 48°14' W 004°30'0 0.0
2018-Jul-11 15:00N 48°14' W 004°30'0 0.0
2018-Jul-11 14:30N 48°14' W 004°30'0 0.0
2018-Jul-11 14:00N 48°14' W 004°30'0 0.0
2018-Jul-11 13:30N 48°14' W 004°30'0 0.0
2018-Jul-11 13:00N 48°14' W 004°30'0 0.0
2018-Jul-11 12:30N 48°14' W 004°30'0 0.0
2018-Jul-11 12:00N 48°14' W 004°30'0 0.0
2018-Jul-11 11:30N 48°14' W 004°30'0 0.0
2018-Jul-11 11:00N 48°14' W 004°30'0 0.0
2018-Jul-11 10:30N 48°14' W 004°30'0 0.0
2018-Jul-11 10:00N 48°14' W 004°30'0 0.0
2018-Jul-11 09:30N 48°14' W 004°30'0 0.0
2018-Jul-11 09:00N 48°14' W 004°30'0 0.0
2018-Jul-11 08:30N 48°14' W 004°30'0 0.0
2018-Jul-11 08:00N 48°14' W 004°30'0 0.0
2018-Jul-11 07:30N 48°14' W 004°30'0 0.0
2018-Jul-11 07:00N 48°14' W 004°30'0 0.0
2018-Jul-11 06:30N 48°14' W 004°30'0 0.0
2018-Jul-11 06:00N 48°14' W 004°30'0 0.0
2018-Jul-11 05:30N 48°14' W 004°30'0 0.0
2018-Jul-11 05:00N 48°14' W 004°30'0 0.0
2018-Jul-11 04:30N 48°14' W 004°30'0 0.0
2018-Jul-11 04:00N 48°14' W 004°30'0 0.0
2018-Jul-11 03:30N 48°14' W 004°30'0 0.0
2018-Jul-11 03:00N 48°14' W 004°30'0 0.0
2018-Jul-11 02:30N 48°14' W 004°30'0 0.0
2018-Jul-11 02:00N 48°14' W 004°30'0 0.0
2018-Jul-11 01:30N 48°14' W 004°30'0 0.0
2018-Jul-11 01:00N 48°14' W 004°30'0 0.0
2018-Jul-11 00:30N 48°14' W 004°30'0 0.0
2018-Jul-11 00:00N 48°14' W 004°30'0 0.0
2018-Jul-10 23:30N 48°14' W 004°30'0 0.0
2018-Jul-10 23:00N 48°14' W 004°30'0 0.0
2018-Jul-10 22:30N 48°14' W 004°30'0 0.0
2018-Jul-10 22:00N 48°14' W 004°30'0 0.0
2018-Jul-10 21:30N 48°14' W 004°30'0 0.0
2018-Jul-10 21:00N 48°14' W 004°30'0 0.0
2018-Jul-10 20:29N 48°14' W 004°30'0 0.0
2018-Jul-10 20:00N 48°14' W 004°30'0 0.0
2018-Jul-10 19:29N 48°14' W 004°30'0 0.0
2018-Jul-10 18:59N 48°14' W 004°30'0 0.0
2018-Jul-10 18:30N 48°14' W 004°30'0 0.0
2018-Jul-10 17:59N 48°14' W 004°30'0 0.0
2018-Jul-10 17:29N 48°14' W 004°30'0 0.0
2018-Jul-10 17:00N 48°14' W 004°30'0 0.0
2018-Jul-10 16:30N 48°14' W 004°30'0 0.9
2018-Jul-10 15:59N 48°13' W 004°29'1 2.1
2018-Jul-10 15:24N 48°12' W 004°30'1 3.0
2018-Jul-10 14:58N 48°11' W 004°32'1 1.1
2018-Jul-10 14:25N 48°10' W 004°31'2 5.4
2018-Jul-10 14:00N 48°12' W 004°30'1 2.7
2018-Jul-10 13:30N 48°14' W 004°30'0 0.0
2018-Jul-08 10:21N 48°14' W 004°30'0 0.0
2018-Jul-08 10:00N 48°14' W 004°30'0 0.0
2018-Jul-08 09:30N 48°14' W 004°30'0 0.0
2018-Jul-07 15:46N 48°14' W 004°30'0 0.5
2018-Jul-07 15:30N 48°14' W 004°30'2 3.2
2018-Jul-07 15:00N 48°12' W 004°30'2 3.4
2018-Jul-07 14:18N 48°10' W 004°32'1 4.0
2018-Jul-07 14:01N 48°09' W 004°33'3 2.2
2018-Jul-07 12:38N 48°12' W 004°31'0 0.0
2018-Jul-07 10:38N 48°12' W 004°31'0 0.0
2018-Jul-07 09:53N 48°12' W 004°31'1 3.0
2018-Jul-07 09:28N 48°13' W 004°30'1 2.0
2018-Jul-07 08:58N 48°14' W 004°30'0 0.0
2018-Jul-06 15:57N 48°14' W 004°30'0 0.8
2018-Jul-06 15:30N 48°13' W 004°29'1 2.0
2018-Jul-06 15:00N 48°12' W 004°30'1 1.3
2018-Jul-06 14:07N 48°12' W 004°31'0 0.0
2018-Jul-06 13:58N 48°12' W 004°31'1 1.5
2018-Jul-06 13:30N 48°12' W 004°30'2 3.2
2018-Jul-06 13:00N 48°12' W 004°28'1 2.6
2018-Jul-06 12:30N 48°13' W 004°29'  

Dump ship's entire track history